Knickerbocker — WDC7987 — position and weather

sailwx.info

Track history (hours):
 
Tides and Currents Weather Stations Pressure Air Temp Water Temp Dewpoint Dewpoint Depression Visibility Wind Speed Wind Dir Waves Ship Positions

Knickerbocker

Owner: Christopher Corp., Newport, RI. More information available from US FCC via Universal Licensing System and Coast Guard Vessel Documentation Center.

Last reported at 2015-Apr-21 17:33 UTC. Time now 2015-Apr-21 17:53 UTC.
Position N 17°01' W 061°46'.

Length 36 m; draft 3.6 m.

Type: Pleasure craft. MMSI: 367079960.

Date/timePositionNaut miles runAvg speedWind from/ knotsBaromVisibWave heightAir tempDewpointWater temp
2015-Apr-21 17:33N 17°01' W 061°46'0 0.0
2015-Apr-21 16:33N 17°01' W 061°46'0 0.0
2015-Apr-21 15:33N 17°01' W 061°46'0 0.0
2015-Apr-21 14:33N 17°01' W 061°46'0 0.0
2015-Apr-21 13:33N 17°01' W 061°46'0 0.0
2015-Apr-21 12:33N 17°01' W 061°46'0 0.0
2015-Apr-21 11:33N 17°01' W 061°46'0 0.0
2015-Apr-21 10:33N 17°01' W 061°46'0 0.0
2015-Apr-21 09:33N 17°01' W 061°46'0 0.0
2015-Apr-21 08:33N 17°01' W 061°46'0 0.0
2015-Apr-21 07:33N 17°01' W 061°46'0 0.0
2015-Apr-21 06:33N 17°01' W 061°46'0 0.0
2015-Apr-21 05:33N 17°01' W 061°46'0 0.0
2015-Apr-21 04:33N 17°01' W 061°46'0 0.0
2015-Apr-21 03:30N 17°01' W 061°46'0 0.0
2015-Apr-21 02:33N 17°01' W 061°46'0 0.0
2015-Apr-21 01:30N 17°01' W 061°46'0 0.0
2015-Apr-21 00:33N 17°01' W 061°46'0 0.0
2015-Apr-20 23:33N 17°01' W 061°46'0 0.0
2015-Apr-20 22:33N 17°01' W 061°46'  
2015-Apr-18 17:33N 17°01' W 061°46'0 0.0
2015-Apr-18 16:33N 17°01' W 061°46'0 0.0
2015-Apr-18 15:33N 17°01' W 061°46'0 0.0
2015-Apr-18 14:33N 17°01' W 061°46'0 0.0
2015-Apr-18 13:33N 17°01' W 061°46'0 0.0
2015-Apr-18 12:33N 17°01' W 061°46'0 0.0
2015-Apr-18 11:33N 17°01' W 061°46'0 0.0
2015-Apr-18 10:33N 17°01' W 061°46'0 0.0
2015-Apr-18 09:33N 17°01' W 061°46'0 0.0
2015-Apr-18 08:27N 17°01' W 061°46'0 0.0
2015-Apr-18 07:33N 17°01' W 061°46'0 0.0
2015-Apr-18 06:33N 17°01' W 061°46'0 0.0
2015-Apr-18 05:33N 17°01' W 061°46'0 0.0
2015-Apr-18 04:33N 17°01' W 061°46'0 0.0
2015-Apr-18 03:33N 17°01' W 061°46'0 0.0
2015-Apr-18 02:33N 17°01' W 061°46'0 0.0
2015-Apr-18 01:33N 17°01' W 061°46'0 0.0
2015-Apr-18 00:30N 17°01' W 061°46'0 0.0
2015-Apr-17 23:33N 17°01' W 061°46'0 0.0
2015-Apr-17 21:12N 17°01' W 061°46'0 0.0
2015-Apr-17 20:33N 17°01' W 061°46'0 0.0
2015-Apr-16 19:08N 17°01' W 061°46'0 0.0
2015-Apr-16 18:32N 17°01' W 061°46'0 0.0
2015-Apr-16 17:32N 17°01' W 061°46'0 0.0
2015-Apr-16 16:32N 17°01' W 061°46'0 0.0
2015-Apr-16 15:32N 17°01' W 061°46'0 0.0
2015-Apr-16 14:32N 17°01' W 061°46'0 0.0
2015-Apr-16 13:32N 17°01' W 061°46'0 0.1
2015-Apr-16 12:33N 17°01' W 061°46'91 4.3
2015-Apr-15 15:23N 17°57' W 063°02'7 6.7
2015-Apr-15 14:23N 18°02' W 063°05'  
2015-Apr-13 03:11N 18°02' W 063°05'0 0.0
2015-Apr-13 00:16N 18°02' W 063°05'0 0.0
2015-Apr-12 22:23N 18°02' W 063°05'1 0.1
2015-Apr-12 09:15N 18°02' W 063°07'6 7.4
2015-Apr-12 08:24N 18°02' W 063°13'77 6.9
2015-Apr-11 21:13N 18°26' W 064°31'6 9.3
2015-Apr-11 20:33N 18°22' W 064°36'9 8.3
2015-Apr-11 19:29N 18°17' W 064°44'7 7.7
2015-Apr-11 18:31N 18°18' W 064°52'  
Track history (hours):
 
Tides and Currents Weather Stations Pressure Air Temp Water Temp Dewpoint Dewpoint Depression Visibility Wind Speed Wind Dir Waves Ship Positions

Knickerbocker

Owner: Christopher Corp., Newport, RI. More information available from US FCC via Universal Licensing System and Coast Guard Vessel Documentation Center.

Last reported at 2015-Apr-21 17:33 UTC. Time now 2015-Apr-21 17:53 UTC.
Position N 17°01' W 061°46'.

Length 36 m; draft 3.6 m.

Type: Pleasure craft. MMSI: 367079960.

Date/timePositionNaut miles runAvg speedWind from/ knotsBaromVisibWave heightAir tempDewpointWater temp
2015-Apr-21 17:33N 17°01' W 061°46'0 0.0
2015-Apr-21 16:33N 17°01' W 061°46'0 0.0
2015-Apr-21 15:33N 17°01' W 061°46'0 0.0
2015-Apr-21 14:33N 17°01' W 061°46'0 0.0
2015-Apr-21 13:33N 17°01' W 061°46'0 0.0
2015-Apr-21 12:33N 17°01' W 061°46'0 0.0
2015-Apr-21 11:33N 17°01' W 061°46'0 0.0
2015-Apr-21 10:33N 17°01' W 061°46'0 0.0
2015-Apr-21 09:33N 17°01' W 061°46'0 0.0
2015-Apr-21 08:33N 17°01' W 061°46'0 0.0
2015-Apr-21 07:33N 17°01' W 061°46'0 0.0
2015-Apr-21 06:33N 17°01' W 061°46'0 0.0
2015-Apr-21 05:33N 17°01' W 061°46'0 0.0
2015-Apr-21 04:33N 17°01' W 061°46'0 0.0
2015-Apr-21 03:30N 17°01' W 061°46'0 0.0
2015-Apr-21 02:33N 17°01' W 061°46'0 0.0
2015-Apr-21 01:30N 17°01' W 061°46'0 0.0
2015-Apr-21 00:33N 17°01' W 061°46'0 0.0
2015-Apr-20 23:33N 17°01' W 061°46'0 0.0
2015-Apr-20 22:33N 17°01' W 061°46'  
2015-Apr-18 17:33N 17°01' W 061°46'0 0.0
2015-Apr-18 16:33N 17°01' W 061°46'0 0.0
2015-Apr-18 15:33N 17°01' W 061°46'0 0.0
2015-Apr-18 14:33N 17°01' W 061°46'0 0.0
2015-Apr-18 13:33N 17°01' W 061°46'0 0.0
2015-Apr-18 12:33N 17°01' W 061°46'0 0.0
2015-Apr-18 11:33N 17°01' W 061°46'0 0.0
2015-Apr-18 10:33N 17°01' W 061°46'0 0.0
2015-Apr-18 09:33N 17°01' W 061°46'0 0.0
2015-Apr-18 08:27N 17°01' W 061°46'0 0.0
2015-Apr-18 07:33N 17°01' W 061°46'0 0.0
2015-Apr-18 06:33N 17°01' W 061°46'0 0.0
2015-Apr-18 05:33N 17°01' W 061°46'0 0.0
2015-Apr-18 04:33N 17°01' W 061°46'0 0.0
2015-Apr-18 03:33N 17°01' W 061°46'0 0.0
2015-Apr-18 02:33N 17°01' W 061°46'0 0.0
2015-Apr-18 01:33N 17°01' W 061°46'0 0.0
2015-Apr-18 00:30N 17°01' W 061°46'0 0.0
2015-Apr-17 23:33N 17°01' W 061°46'0 0.0
2015-Apr-17 21:12N 17°01' W 061°46'0 0.0
2015-Apr-17 20:33N 17°01' W 061°46'0 0.0
2015-Apr-16 19:08N 17°01' W 061°46'0 0.0
2015-Apr-16 18:32N 17°01' W 061°46'0 0.0
2015-Apr-16 17:32N 17°01' W 061°46'0 0.0
2015-Apr-16 16:32N 17°01' W 061°46'0 0.0
2015-Apr-16 15:32N 17°01' W 061°46'0 0.0
2015-Apr-16 14:32N 17°01' W 061°46'0 0.0
2015-Apr-16 13:32N 17°01' W 061°46'0 0.1
2015-Apr-16 12:33N 17°01' W 061°46'91 4.3
2015-Apr-15 15:23N 17°57' W 063°02'7 6.7
2015-Apr-15 14:23N 18°02' W 063°05'  
2015-Apr-13 03:11N 18°02' W 063°05'0 0.0
2015-Apr-13 00:16N 18°02' W 063°05'0 0.0
2015-Apr-12 22:23N 18°02' W 063°05'1 0.1
2015-Apr-12 09:15N 18°02' W 063°07'6 7.4
2015-Apr-12 08:24N 18°02' W 063°13'77 6.9
2015-Apr-11 21:13N 18°26' W 064°31'6 9.3
2015-Apr-11 20:33N 18°22' W 064°36'9 8.3
2015-Apr-11 19:29N 18°17' W 064°44'7 7.7
2015-Apr-11 18:31N 18°18' W 064°52'  

Dump ship's entire track history